Time;durP1;ratioP1;P1;durP2;ratioP2;P2;SDS_P1;SDS_P2;PMS_P1;PMS_P2;Temp;Humidity;BMP_temperature;BMP_pressure;BME280_temperature;BME280_humidity;BME280_pressure;Samples;Min_cycle;Max_cycle;Signal;HPM_P1;HPM_P2
2022/08/17 00:01:12;;;;;;;1.80;1.52;;;18.50;99.90;;;;;;5037119;28;20205;-83
2022/08/17 00:03:41;;;;;;;1.23;0.77;;;18.50;99.90;;;;;;5054755;28;20194;-83
2022/08/17 00:06:18;;;;;;;3.10;1.25;;;18.50;99.90;;;;;;5053775;28;20213;-83
2022/08/17 00:08:52;;;;;;;2.05;1.08;;;18.60;99.90;;;;;;5060035;28;20195;-84
2022/08/17 00:11:37;;;;;;;1.40;1.15;;;18.60;99.90;;;;;;5073176;28;20713;-83
2022/08/17 00:14:16;;;;;;;0.70;0.70;;;18.60;99.90;;;;;;5073318;28;20201;-83
2022/08/17 00:16:46;;;;;;;6.30;1.70;;;18.60;99.90;;;;;;5073213;28;20224;-83
2022/08/17 00:19:14;;;;;;;0.65;0.65;;;18.50;99.90;;;;;;5073277;28;20201;-83
2022/08/17 00:21:44;;;;;;;0.68;0.68;;;18.50;99.90;;;;;;5073012;28;20193;-83
2022/08/17 00:24:10;;;;;;;3.28;1.17;;;18.50;99.90;;;;;;5074244;28;20222;-83
2022/08/17 00:26:36;;;;;;;1.45;1.35;;;18.60;99.90;;;;;;5073171;28;20201;-83
2022/08/17 00:29:03;;;;;;;2.30;1.42;;;18.60;99.90;;;;;;5073036;28;20679;-83
2022/08/17 00:31:28;;;;;;;1.60;1.38;;;18.70;99.90;;;;;;5053350;28;20627;-83
2022/08/17 00:33:54;;;;;;;3.53;1.80;;;18.70;99.90;;;;;;5033224;28;20280;-83
2022/08/17 00:36:20;;;;;;;2.33;2.13;;;18.80;99.90;;;;;;5033085;28;20279;-83
2022/08/17 00:38:46;;;;;;;1.55;1.30;;;18.80;99.90;;;;;;5034324;28;20186;-83
2022/08/17 00:41:16;;;;;;;1.48;1.35;;;18.90;99.90;;;;;;5032793;28;20198;-83
2022/08/17 00:43:48;;;;;;;3.92;1.98;;;18.90;99.90;;;;;;5032272;28;20194;-83
2022/08/17 00:46:18;;;;;;;4.45;1.90;;;19.00;99.90;;;;;;5031095;28;20234;-83
2022/08/17 00:48:44;;;;;;;1.73;1.63;;;19.00;99.90;;;;;;5037415;28;20260;-83
2022/08/17 00:51:16;;;;;;;2.92;1.85;;;19.00;99.90;;;;;;5052222;28;20696;-83
2022/08/17 00:53:46;;;;;;;3.30;2.13;;;19.00;99.90;;;;;;5052569;28;20205;-83
2022/08/17 00:56:17;;;;;;;4.05;1.95;;;19.00;99.90;;;;;;5052304;28;20601;-83
2022/08/17 00:58:43;;;;;;;1.30;1.20;;;19.00;99.90;;;;;;5052390;28;20563;-83
2022/08/17 01:01:11;;;;;;;1.65;1.55;;;19.00;99.90;;;;;;5053910;28;20193;-83
2022/08/17 01:03:39;;;;;;;1.05;0.90;;;19.00;99.90;;;;;;5053349;28;20197;-82
2022/08/17 01:06:06;;;;;;;1.23;1.05;;;19.00;99.90;;;;;;5053452;28;20209;-83
2022/08/17 01:08:33;;;;;;;1.55;1.30;;;19.00;99.90;;;;;;5052325;28;20197;-83
2022/08/17 01:11:00;;;;;;;2.13;1.65;;;19.00;99.90;;;;;;5053822;28;20730;-83
2022/08/17 01:13:29;;;;;;;1.27;1.17;;;19.00;99.90;;;;;;5051900;28;20233;-83
2022/08/17 01:16:06;;;;;;;5.25;1.58;;;19.10;99.90;;;;;;5053565;28;20258;-82
2022/08/17 01:18:33;;;;;;;1.75;1.63;;;19.00;99.90;;;;;;5053412;28;20207;-83
2022/08/17 01:21:06;;;;;;;2.70;1.75;;;19.00;99.90;;;;;;5052277;28;20200;-83
2022/08/17 01:23:32;;;;;;;1.98;1.77;;;19.00;99.90;;;;;;5052239;28;20235;-83
2022/08/17 01:26:00;;;;;;;3.80;1.85;;;19.00;99.90;;;;;;5051955;28;20255;-83
2022/08/17 01:28:31;;;;;;;1.67;1.58;;;19.00;99.90;;;;;;5035738;28;20395;-82
2022/08/17 01:31:02;;;;;;;5.97;2.08;;;19.00;99.90;;;;;;5053342;28;20194;-82
2022/08/17 01:33:29;;;;;;;4.20;2.45;;;19.00;99.90;;;;;;5051277;28;20201;-83
2022/08/17 01:35:55;;;;;;;2.03;1.70;;;19.00;99.90;;;;;;5051749;28;20292;-83
2022/08/17 01:38:22;;;;;;;5.95;2.40;;;19.10;99.90;;;;;;5051988;28;20245;-83
2022/08/17 01:40:57;;;;;;;2.17;1.98;;;19.10;99.90;;;;;;5052463;28;20296;-83
2022/08/17 01:43:40;;;;;;;3.85;1.92;;;19.10;99.90;;;;;;5051716;28;20665;-83
2022/08/17 01:46:06;;;;;;;2.50;2.17;;;19.10;99.90;;;;;;5051976;28;20222;-83
2022/08/17 01:48:34;;;;;;;2.00;1.63;;;19.10;99.90;;;;;;5051883;28;20189;-82
2022/08/17 01:51:00;;;;;;;1.67;1.48;;;19.10;99.90;;;;;;5051645;28;20770;-83
2022/08/17 01:53:33;;;;;;;2.13;1.63;;;19.10;99.90;;;;;;5051547;28;20208;-82
2022/08/17 01:56:08;;;;;;;2.40;1.17;;;19.00;99.90;;;;;;5052312;28;20730;-82
2022/08/17 01:58:35;;;;;;;0.70;0.70;;;19.00;99.90;;;;;;5056891;28;20597;-83
2022/08/17 02:01:01;;;;;;;2.10;1.75;;;19.00;99.90;;;;;;5054397;28;20612;-83
2022/08/17 02:03:28;;;;;;;11.43;1.63;;;19.00;99.90;;;;;;5055683;28;20201;-83
2022/08/17 02:05:54;;;;;;;4.68;2.00;;;19.00;99.90;;;;;;5056090;28;20216;-83
2022/08/17 02:08:20;;;;;;;3.92;1.67;;;19.00;99.90;;;;;;5055727;28;20194;-83
2022/08/17 02:10:48;;;;;;;1.17;1.08;;;19.00;99.90;;;;;;5057031;28;20197;-82
2022/08/17 02:13:14;;;;;;;1.75;1.38;;;19.00;99.90;;;;;;5055771;28;20687;-83
2022/08/17 02:15:40;;;;;;;3.85;2.13;;;18.90;99.90;;;;;;5056574;28;20194;-83
2022/08/17 02:18:09;;;;;;;2.40;2.20;;;18.90;99.90;;;;;;5056831;28;20247;-82
2022/08/17 02:20:37;;;;;;;1.80;1.52;;;18.90;99.90;;;;;;5054330;28;20720;-82
2022/08/17 02:23:04;;;;;;;2.28;2.08;;;18.90;99.90;;;;;;5051923;28;20665;-83
2022/08/17 02:25:32;;;;;;;2.45;1.50;;;19.00;99.90;;;;;;5036329;28;20661;-83
2022/08/17 02:27:58;;;;;;;3.10;1.83;;;19.00;99.90;;;;;;5036735;28;20202;-83
2022/08/17 02:30:25;;;;;;;2.70;1.98;;;19.10;99.90;;;;;;5036357;28;20278;-82
2022/08/17 02:32:51;;;;;;;2.25;1.83;;;19.10;99.90;;;;;;5035353;28;20194;-83
2022/08/17 02:35:17;;;;;;;2.35;2.15;;;19.10;99.90;;;;;;5035202;28;20572;-83
2022/08/17 02:37:43;;;;;;;7.43;2.00;;;19.10;99.90;;;;;;5035259;28;20209;-83
2022/08/17 02:40:09;;;;;;;2.50;1.73;;;19.10;99.90;;;;;;5035156;28;20247;-83
2022/08/17 02:42:39;;;;;;;2.78;2.05;;;19.10;99.90;;;;;;5034758;28;20194;-83
2022/08/17 02:45:11;;;;;;;3.75;1.83;;;19.10;99.90;;;;;;5035083;28;20292;-83
2022/08/17 02:47:39;;;;;;;3.17;1.98;;;19.10;99.90;;;;;;5034905;28;20196;-82
2022/08/17 02:50:07;;;;;;;2.63;2.00;;;19.10;99.90;;;;;;5041621;28;20235;-82
2022/08/17 02:52:38;;;;;;;9.32;1.83;;;19.10;99.90;;;;;;5055943;28;20201;-83
2022/08/17 02:55:10;;;;;;;1.60;1.50;;;19.20;99.90;;;;;;5056041;28;20628;-83
2022/08/17 02:57:36;;;;;;;2.05;1.83;;;19.20;99.90;;;;;;5049280;28;20689;-83
2022/08/17 03:00:09;;;;;;;5.80;2.13;;;19.20;99.90;;;;;;5035981;28;20669;-83
2022/08/17 03:02:42;;;;;;;2.90;2.17;;;19.20;99.90;;;;;;5046678;28;20196;-83
2022/08/17 03:05:11;;;;;;;2.78;1.92;;;19.20;99.90;;;;;;5053604;28;20210;-82
2022/08/17 03:07:37;;;;;;;2.25;1.98;;;19.10;99.90;;;;;;5054182;28;20204;-83
2022/08/17 03:10:08;;;;;;;6.22;2.55;;;19.20;99.90;;;;;;5054476;28;20613;-83
2022/08/17 03:12:37;;;;;;;18.20;3.30;;;19.20;99.90;;;;;;5054198;28;20661;-82
2022/08/17 03:15:06;;;;;;;4.90;2.33;;;19.20;99.90;;;;;;5055765;28;20236;-83
2022/08/17 03:17:32;;;;;;;5.82;2.28;;;19.10;99.90;;;;;;5054275;28;20201;-83
2022/08/17 03:19:57;;;;;;;4.28;1.65;;;19.10;99.90;;;;;;5040445;28;20225;-83
2022/08/17 03:22:25;;;;;;;1.40;1.25;;;19.10;99.90;;;;;;5034395;28;20252;-83
2022/08/17 03:24:51;;;;;;;1.75;1.42;;;19.20;99.90;;;;;;5034403;28;20218;-82
2022/08/17 03:27:17;;;;;;;1.80;1.35;;;19.20;99.90;;;;;;5034374;28;20632;-83
2022/08/17 03:29:42;;;;;;;2.67;1.73;;;19.20;99.90;;;;;;5035769;28;20233;-83
2022/08/17 03:32:13;;;;;;;2.13;1.80;;;19.10;99.90;;;;;;5034339;28;20194;-83
2022/08/17 03:34:39;;;;;;;2.10;1.90;;;19.10;99.90;;;;;;5034663;28;20346;-82
2022/08/17 03:37:05;;;;;;;2.40;1.83;;;19.10;99.90;;;;;;5034825;28;20202;-82
2022/08/17 03:39:31;;;;;;;1.80;1.63;;;19.10;99.90;;;;;;5035453;28;20564;-83
2022/08/17 03:42:08;;;;;;;1.48;1.30;;;19.10;99.90;;;;;;5033540;28;20628;-83
2022/08/17 03:44:34;;;;;;;2.45;2.00;;;19.10;99.90;;;;;;5033284;28;20285;-83
2022/08/17 03:57:57;;;;;;;5.20;2.75;;;19.10;99.90;;;;;;5055216;28;20207;-83
2022/08/17 04:00:23;;;;;;;1.42;1.33;;;19.20;99.90;;;;;;5054680;28;20656;-83
2022/08/17 04:02:49;;;;;;;1.80;1.40;;;19.20;99.90;;;;;;5052426;28;20193;-83
2022/08/17 04:05:14;;;;;;;2.92;2.55;;;19.20;99.90;;;;;;5054725;28;20281;-83
2022/08/17 04:07:40;;;;;;;3.30;1.98;;;19.20;99.90;;;;;;5053394;28;20217;-82
2022/08/17 04:10:06;;;;;;;4.75;1.77;;;19.20;99.90;;;;;;5053383;28;20264;-82
2022/08/17 04:12:53;;;;;;;2.83;2.00;;;19.20;99.90;;;;;;5054575;28;20200;-83
2022/08/17 04:15:20;;;;;;;2.63;2.28;;;19.20;99.90;;;;;;5049792;28;20202;-82
2022/08/17 04:17:46;;;;;;;2.55;1.98;;;19.20;99.90;;;;;;5034765;28;20546;-83
2022/08/17 04:20:14;;;;;;;5.63;1.85;;;19.20;99.90;;;;;;5032444;28;20711;-83
2022/08/17 04:22:58;;;;;;;3.63;2.40;;;19.10;99.90;;;;;;5049805;28;20209;-83
2022/08/17 04:25:26;;;;;;;3.05;2.10;;;19.10;99.90;;;;;;5032721;28;20221;-83
2022/08/17 04:27:53;;;;;;;1.65;1.48;;;19.10;99.90;;;;;;5034499;28;20193;-82
2022/08/17 04:30:19;;;;;;;3.63;2.55;;;19.10;99.90;;;;;;5034252;28;20197;-82
2022/08/17 04:32:52;;;;;;;2.67;2.03;;;19.10;99.90;;;;;;5034323;28;20277;-82
2022/08/17 04:35:21;;;;;;;5.70;3.08;;;19.10;99.90;;;;;;5033194;28;20263;-82
2022/08/17 04:37:47;;;;;;;4.93;2.70;;;19.20;99.90;;;;;;5033119;28;20210;-82
2022/08/17 04:43:11;;;;;;;1.73;1.60;;;19.20;99.90;;;;;;5034449;28;20711;-82
2022/08/17 04:45:41;;;;;;;1.70;1.55;;;19.20;99.90;;;;;;5032652;28;20677;-82
2022/08/17 04:48:07;;;;;;;9.90;2.03;;;19.20;99.90;;;;;;5049442;28;20673;-81
2022/08/17 04:50:35;;;;;;;6.05;2.33;;;19.20;99.90;;;;;;5054285;28;20255;-81
2022/08/17 04:53:03;;;;;;;4.95;1.63;;;19.20;99.90;;;;;;5072722;28;20208;-81
2022/08/17 04:55:29;;;;;;;1.70;1.60;;;19.20;99.90;;;;;;5072493;28;20542;-81
2022/08/17 04:57:55;;;;;;;4.75;2.40;;;19.30;99.90;;;;;;5073015;28;20192;-81
2022/08/17 05:00:21;;;;;;;3.85;2.55;;;19.40;99.90;;;;;;5073236;28;20664;-81
2022/08/17 05:02:51;;;;;;;6.72;2.30;;;19.40;99.90;;;;;;5072124;28;20196;-81
2022/08/17 05:05:31;;;;;;;6.65;3.10;;;19.40;99.90;;;;;;5046743;28;20309;-81
2022/08/17 05:08:00;;;;;;;2.00;1.80;;;19.50;99.90;;;;;;5053462;28;20228;-81
2022/08/17 05:10:30;;;;;;;2.13;1.92;;;19.50;99.90;;;;;;5053122;28;20201;-81
2022/08/17 05:13:01;;;;;;;4.13;2.40;;;19.60;99.90;;;;;;5048477;28;20590;-81
2022/08/17 05:15:28;;;;;;;3.63;2.67;;;19.70;99.90;;;;;;5031927;28;20736;-81
2022/08/17 05:17:54;;;;;;;4.50;2.53;;;19.80;99.90;;;;;;5033376;28;20220;-81
2022/08/17 05:20:21;;;;;;;1.90;1.65;;;19.80;99.90;;;;;;5032090;28;20202;-81
2022/08/17 05:22:53;;;;;;;3.08;1.92;;;19.80;99.90;;;;;;5032512;28;20213;-81
2022/08/17 05:25:26;;;;;;;9.45;2.53;;;19.80;99.90;;;;;;5032042;28;20256;-81
2022/08/17 05:27:53;;;;;;;2.15;1.58;;;19.90;99.90;;;;;;5015822;28;20248;-81
2022/08/17 05:30:18;;;;;;;2.22;2.08;;;19.90;99.90;;;;;;5032092;28;20202;-81
2022/08/17 05:33:05;;;;;;;1.92;1.63;;;19.90;99.90;;;;;;5035723;28;20194;-81
2022/08/17 05:35:34;;;;;;;3.25;2.03;;;19.80;99.90;;;;;;5037977;28;20228;-81
2022/08/17 05:38:00;;;;;;;8.45;2.20;;;19.80;99.90;;;;;;5036074;28;20619;-81
2022/08/17 05:40:27;;;;;;;4.50;3.10;;;19.70;99.90;;;;;;5037463;28;20194;-81
2022/08/17 05:43:16;;;;;;;5.15;3.42;;;19.80;99.90;;;;;;5037481;28;20198;-81
2022/08/17 05:45:48;;;;;;;2.67;2.47;;;19.80;99.90;;;;;;5038616;28;20669;-81
2022/08/17 05:48:14;;;;;;;1.58;1.48;;;19.80;99.90;;;;;;5056023;28;20198;-81
2022/08/17 05:51:06;;;;;;;2.05;1.88;;;19.80;99.90;;;;;;5055453;28;20229;-81
2022/08/17 05:54:07;;;;;;;5.78;2.47;;;19.80;99.90;;;;;;5041901;28;20201;-81
2022/08/17 05:57:09;;;;;;;2.80;2.17;;;19.80;99.90;;;;;;5048057;28;20213;-81
2022/08/17 05:59:44;;;;;;;2.75;2.03;;;19.90;99.90;;;;;;5040636;28;20277;-81
2022/08/17 06:02:31;;;;;;;2.55;2.20;;;19.90;99.90;;;;;;5055532;28;20287;-81
2022/08/17 06:05:24;;;;;;;3.13;1.77;;;19.90;99.90;;;;;;5055786;28;20217;-81
2022/08/17 06:08:24;;;;;;;10.40;2.20;;;19.90;99.90;;;;;;5055607;28;20652;-81
2022/08/17 06:11:00;;;;;;;2.28;2.05;;;19.90;99.90;;;;;;5055557;28;20661;-81
2022/08/17 06:13:42;;;;;;;2.50;2.30;;;19.90;99.90;;;;;;5055271;28;20664;-84
2022/08/17 06:16:14;;;;;;;3.08;2.20;;;19.90;99.90;;;;;;5056893;28;20279;-81
2022/08/17 06:18:52;;;;;;;5.80;3.08;;;19.90;99.90;;;;;;5056565;28;20198;-81
2022/08/17 06:21:19;;;;;;;4.45;2.38;;;19.90;99.90;;;;;;5056589;28;20189;-81
2022/08/17 06:23:58;;;;;;;5.97;2.45;;;19.90;99.90;;;;;;5055372;28;20248;-81
2022/08/17 06:26:28;;;;;;;4.90;2.20;;;19.90;99.90;;;;;;5056156;28;20751;-81
2022/08/17 06:29:22;;;;;;;6.32;2.17;;;19.80;99.90;;;;;;5055118;28;20196;-81
2022/08/17 06:31:48;;;;;;;2.90;2.00;;;19.80;99.90;;;;;;5056526;28;20620;-81
2022/08/17 06:34:14;;;;;;;2.15;1.88;;;19.80;99.90;;;;;;5056325;28;20196;-81
2022/08/17 06:37:04;;;;;;;2.22;1.70;;;19.80;99.90;;;;;;5056294;28;20612;-81
2022/08/17 06:39:35;;;;;;;4.13;1.88;;;19.70;99.90;;;;;;5054806;28;20267;-81
2022/08/17 06:42:36;;;;;;;2.47;1.77;;;19.70;99.90;;;;;;5054417;28;20243;-81
2022/08/17 06:45:26;;;;;;;3.67;2.65;;;19.80;99.90;;;;;;5054585;28;20730;-81
2022/08/17 06:48:03;;;;;;;6.30;2.80;;;19.80;99.90;;;;;;5054604;28;20201;-81
2022/08/17 06:50:41;;;;;;;11.27;2.92;;;19.80;99.90;;;;;;5044884;28;20311;-81
2022/08/17 06:53:27;;;;;;;4.80;2.53;;;19.90;99.90;;;;;;5034551;28;20637;-81
2022/08/17 06:55:55;;;;;;;1.85;1.63;;;19.80;99.90;;;;;;5050566;28;20658;-83
2022/08/17 06:58:24;;;;;;;3.30;2.63;;;19.90;99.90;;;;;;5047226;28;20555;-81
2022/08/17 07:00:52;;;;;;;3.20;1.95;;;19.90;99.90;;;;;;5054592;28;20684;-81
2022/08/17 07:03:37;;;;;;;2.13;1.63;;;19.80;99.90;;;;;;5054392;28;20715;-82
2022/08/17 07:06:14;;;;;;;3.70;2.45;;;19.80;99.90;;;;;;5054464;28;20696;-81
2022/08/17 07:08:56;;;;;;;2.03;1.73;;;19.90;99.90;;;;;;5054056;28;20197;-81
2022/08/17 07:11:28;;;;;;;4.95;3.15;;;19.80;99.90;;;;;;5054935;28;20567;-81
2022/08/17 07:14:09;;;;;;;2.78;1.88;;;19.80;99.90;;;;;;5054283;28;20672;-82
2022/08/17 07:16:45;;;;;;;2.38;2.10;;;19.80;99.90;;;;;;5055655;28;20671;-81
2022/08/17 07:19:12;;;;;;;2.33;1.50;;;19.90;99.90;;;;;;5054095;28;20197;-81
2022/08/17 07:22:00;;;;;;;4.93;1.60;;;20.00;99.90;;;;;;5053835;28;20765;-81
2022/08/17 07:24:36;;;;;;;2.97;2.63;;;20.20;99.90;;;;;;5055070;28;20213;-81
2022/08/17 07:27:16;;;;;;;5.47;2.33;;;20.40;99.90;;;;;;5055261;28;20188;-81
2022/08/17 07:29:52;;;;;;;4.32;2.00;;;20.50;99.90;;;;;;5055260;28;20693;-82
2022/08/17 07:32:44;;;;;;;1.52;1.33;;;20.60;99.90;;;;;;5054008;28;20194;-81
2022/08/17 07:35:29;;;;;;;0.85;0.85;;;20.50;99.90;;;;;;5053808;28;20343;-81
2022/08/17 07:38:10;;;;;;;2.45;1.92;;;20.60;99.90;;;;;;5055103;28;20564;-82
2022/08/17 07:40:39;;;;;;;3.35;2.13;;;20.70;99.90;;;;;;5053619;28;20224;-82
2022/08/17 07:43:14;;;;;;;2.13;1.80;;;20.90;99.90;;;;;;5052940;28;20232;-82
2022/08/17 07:48:40;;;;;;;2.33;1.48;;;21.20;99.90;;;;;;5054962;28;20220;-81
2022/08/17 07:51:32;;;;;;;2.85;2.00;;;21.10;99.90;;;;;;5049951;28;20689;-81
2022/08/17 07:54:21;;;;;;;4.65;1.98;;;21.00;99.90;;;;;;5034398;28;20673;-81
2022/08/17 07:56:51;;;;;;;1.23;1.10;;;21.00;99.90;;;;;;5033256;28;20225;-81
2022/08/17 07:59:27;;;;;;;3.25;2.35;;;21.00;99.90;;;;;;5050025;28;20232;-81
2022/08/17 08:01:56;;;;;;;2.35;1.33;;;21.20;99.90;;;;;;5053981;28;20201;-81
2022/08/17 08:04:39;;;;;;;2.20;1.58;;;21.20;99.90;;;;;;5053274;28;20243;-81
2022/08/17 08:07:30;;;;;;;1.92;1.27;;;21.30;99.90;;;;;;5053285;28;20198;-81
2022/08/17 08:10:26;;;;;;;2.92;2.05;;;21.40;99.90;;;;;;5053040;28;20204;-81
2022/08/17 08:13:07;;;;;;;1.25;1.05;;;21.30;99.90;;;;;;5044767;28;20205;-81
2022/08/17 08:15:47;;;;;;;2.30;1.42;;;21.30;99.90;;;;;;5053950;28;20204;-81
2022/08/17 08:18:35;;;;;;;5.10;1.38;;;21.20;99.90;;;;;;5053045;28;20565;-81
2022/08/17 08:21:30;;;;;;;1.45;1.35;;;21.10;99.90;;;;;;5054373;28;20681;-82
2022/08/17 08:24:35;;;;;;;1.88;1.63;;;21.00;99.90;;;;;;5052949;28;20264;-81
2022/08/17 08:27:25;;;;;;;1.27;1.13;;;20.80;99.90;;;;;;5015641;28;20244;-80
2022/08/17 08:30:15;;;;;;;2.17;1.38;;;20.60;99.90;;;;;;5015506;28;20198;-81
2022/08/17 08:33:03;;;;;;;1.23;1.13;;;20.40;99.90;;;;;;5044486;28;20206;-81
2022/08/17 08:35:52;;;;;;;2.60;1.70;;;20.30;99.90;;;;;;5048391;28;20654;-81
2022/08/17 08:38:53;;;;;;;1.70;1.50;;;20.20;99.90;;;;;;5033236;28;20202;-81
2022/08/17 08:41:42;;;;;;;3.95;1.98;;;20.20;99.90;;;;;;5032262;28;20214;-81
2022/08/17 08:44:43;;;;;;;2.03;1.25;;;20.20;99.90;;;;;;5032654;28;20695;-81
2022/08/17 08:47:35;;;;;;;1.35;1.25;;;20.10;99.90;;;;;;5033750;28;20224;-81
2022/08/17 08:50:42;;;;;;;2.08;1.88;;;20.10;99.90;;;;;;5039814;28;20221;-82
2022/08/17 08:53:34;;;;;;;3.60;1.58;;;20.20;99.90;;;;;;5034876;28;20208;-82
2022/08/17 08:56:15;;;;;;;1.25;1.15;;;20.30;99.90;;;;;;5053642;28;20224;-82
2022/08/17 08:58:49;;;;;;;0.60;0.60;;;20.30;99.90;;;;;;5053716;28;20668;-82
2022/08/17 09:01:46;;;;;;;3.78;1.48;;;20.30;99.90;;;;;;5053397;28;20280;-82
2022/08/17 09:04:24;;;;;;;2.17;1.65;;;20.30;99.90;;;;;;5051635;28;20201;-82
2022/08/17 09:06:58;;;;;;;1.98;1.45;;;20.30;99.90;;;;;;5052733;28;20549;-82
2022/08/17 09:09:39;;;;;;;2.63;2.10;;;20.30;99.90;;;;;;5051670;28;20268;-82
2022/08/17 09:12:09;;;;;;;1.73;1.63;;;20.20;99.90;;;;;;5051628;28;20201;-82
2022/08/17 09:15:04;;;;;;;3.60;1.65;;;20.20;99.90;;;;;;5052090;28;20198;-82
2022/08/17 09:17:47;;;;;;;1.88;1.40;;;20.30;99.90;;;;;;5051507;28;20224;-81
2022/08/17 09:20:26;;;;;;;2.40;1.52;;;20.40;99.90;;;;;;5051933;28;20233;-81
2022/08/17 09:22:58;;;;;;;1.88;1.58;;;20.50;99.90;;;;;;5052963;28;20204;-81
2022/08/17 09:25:30;;;;;;;1.70;1.33;;;20.60;99.90;;;;;;5051910;28;20244;-80
2022/08/17 09:27:58;;;;;;;3.88;1.52;;;20.70;99.90;;;;;;5052635;28;20205;-81
2022/08/17 09:30:28;;;;;;;2.47;1.80;;;20.90;99.90;;;;;;5051145;28;20198;-82
2022/08/17 09:33:16;;;;;;;1.52;1.42;;;21.00;99.90;;;;;;5048577;28;20234;-82
2022/08/17 09:35:46;;;;;;;0.63;0.63;;;21.10;99.90;;;;;;5031188;28;20206;-82
2022/08/17 09:38:12;;;;;;;5.00;2.90;;;21.20;99.90;;;;;;5032167;28;20206;-82
2022/08/17 09:40:50;;;;;;;1.50;1.40;;;21.30;99.90;;;;;;5031591;28;20209;-82
2022/08/17 09:43:29;;;;;;;1.95;1.75;;;21.40;99.90;;;;;;5031829;28;20720;-82
2022/08/17 09:46:01;;;;;;;2.53;1.80;;;21.50;99.90;;;;;;5033048;28;20205;-82
2022/08/17 09:48:38;;;;;;;2.15;1.48;;;21.50;99.90;;;;;;5031659;28;20732;-82
2022/08/17 09:51:21;;;;;;;1.65;1.55;;;21.60;99.90;;;;;;5032974;28;20692;-82
2022/08/17 09:53:47;;;;;;;2.08;1.65;;;21.80;99.90;;;;;;5045968;28;20197;-82
2022/08/17 09:56:22;;;;;;;3.97;2.40;;;21.80;99.90;;;;;;5051729;28;20197;-81
2022/08/17 09:59:20;;;;;;;5.50;1.70;;;21.90;99.90;;;;;;5051665;28;20220;-82
2022/08/17 10:01:50;;;;;;;2.50;1.88;;;22.00;99.90;;;;;;5051442;28;20653;-82
2022/08/17 10:04:54;;;;;;;2.75;2.20;;;22.10;99.90;;;;;;5050911;28;20209;-82
2022/08/17 10:07:27;;;;;;;2.28;1.90;;;22.20;99.90;;;;;;5051069;28;20213;-82
2022/08/17 10:10:01;;;;;;;3.33;2.25;;;22.80;99.90;;;;;;5052456;28;20225;-82
2022/08/17 10:12:57;;;;;;;6.35;1.75;;;23.40;99.90;;;;;;5047597;28;20206;-82
2022/08/17 10:15:35;;;;;;;2.22;1.70;;;23.90;99.90;;;;;;5051410;28;20201;-82
2022/08/17 10:18:17;;;;;;;2.45;1.50;;;23.70;99.90;;;;;;5053504;28;20575;-81
2022/08/17 10:20:51;;;;;;;3.00;1.90;;;23.60;99.90;;;;;;5055046;28;20198;-82
2022/08/17 10:26:19;;;;;;;1.58;1.48;;;24.20;99.90;;;;;;5056333;28;20678;-81
2022/08/17 10:28:54;;;;;;;2.10;1.88;;;23.90;99.90;;;;;;5051256;28;20193;-81
2022/08/17 10:31:39;;;;;;;2.92;1.98;;;23.70;99.90;;;;;;5034792;28;20194;-82
2022/08/17 10:34:34;;;;;;;19.77;2.92;;;23.80;99.90;;;;;;5035136;28;20678;-82
2022/08/17 10:37:09;;;;;;;1.50;1.23;;;24.00;99.90;;;;;;5034716;28;20739;-82
2022/08/17 10:40:14;;;;;;;1.98;1.77;;;24.20;99.90;;;;;;5034413;28;20300;-82
2022/08/17 10:43:14;;;;;;;1.95;1.58;;;24.20;99.90;;;;;;5035723;28;20654;-82
2022/08/17 10:45:50;;;;;;;1.67;1.27;;;23.90;99.90;;;;;;5035726;28;20228;-82
2022/08/17 10:48:29;;;;;;;2.45;2.08;;;23.80;99.90;;;;;;5034960;28;20669;-82
2022/08/17 10:50:55;;;;;;;2.95;2.03;;;23.80;99.90;;;;;;5051071;28;20229;-82
2022/08/17 10:53:38;;;;;;;1.27;1.17;;;23.90;99.90;;;;;;5036947;28;20220;-82
2022/08/17 10:56:14;;;;;;;2.42;2.10;;;24.00;99.90;;;;;;5055606;28;20281;-82
2022/08/17 10:58:53;;;;;;;1.98;1.77;;;24.10;99.90;;;;;;5055665;28;20201;-82
2022/08/17 11:01:31;;;;;;;3.00;1.80;;;23.90;99.90;;;;;;5055443;28;20624;-82
2022/08/17 11:04:02;;;;;;;1.92;1.67;;;23.60;99.90;;;;;;5054568;28;20197;-82
2022/08/17 11:06:41;;;;;;;3.00;1.70;;;23.70;99.90;;;;;;5054192;28;20217;-82
2022/08/17 11:09:26;;;;;;;2.40;1.52;;;23.80;99.90;;;;;;5054060;28;20564;-82
2022/08/17 11:11:58;;;;;;;1.83;1.55;;;23.80;99.90;;;;;;5053964;28;20193;-82
2022/08/17 11:15:22;;;;;;;2.20;1.73;;;24.20;99.90;;;;;;5054801;28;20247;-82
2022/08/17 11:18:11;;;;;;;1.58;1.17;;;24.40;99.90;;;;;;5005396;28;20325;-82
2022/08/17 11:21:07;;;;;;;1.83;1.23;;;24.40;99.90;;;;;;5053252;28;20201;-83
2022/08/17 11:23:43;;;;;;;2.78;1.90;;;24.30;99.90;;;;;;5053358;28;20193;-82
2022/08/17 11:26:26;;;;;;;1.08;1.02;;;24.10;99.90;;;;;;5053729;28;20244;-82
2022/08/17 11:29:00;;;;;;;2.28;1.40;;;23.70;99.90;;;;;;5053132;28;20213;-80
2022/08/17 11:31:28;;;;;;;2.47;1.35;;;23.40;99.90;;;;;;5054814;28;20243;-82
2022/08/17 11:34:02;;;;;;;3.28;1.95;;;23.10;99.90;;;;;;5054717;28;20208;-82
2022/08/17 11:36:44;;;;;;;1.98;1.58;;;22.90;99.90;;;;;;5053145;28;20605;-79
2022/08/17 11:39:47;;;;;;;1.48;1.20;;;22.80;99.90;;;;;;5053360;28;20718;-80
2022/08/17 11:42:24;;;;;;;1.38;1.27;;;22.60;99.90;;;;;;5053183;28;20193;-82
2022/08/17 11:45:01;;;;;;;1.38;1.27;;;22.50;99.90;;;;;;5054498;28;20205;-82
2022/08/17 11:53:37;;;;;;;1.17;1.08;;;23.50;99.90;;;;;;5054451;28;20220;-83
2022/08/17 11:56:08;;;;;;;4.32;2.22;;;23.50;99.90;;;;;;5053360;28;20216;-83
2022/08/17 11:58:44;;;;;;;1.02;1.00;;;23.60;99.90;;;;;;5054120;28;20189;-83
2022/08/17 12:01:12;;;;;;;2.33;1.10;;;24.20;99.90;;;;;;5053348;28;20636;-83
2022/08/17 12:03:41;;;;;;;8.20;1.90;;;24.70;99.90;;;;;;5054212;28;20635;-82
2022/08/17 12:06:48;;;;;;;2.67;1.40;;;24.80;99.90;;;;;;5053009;28;20696;-85
2022/08/17 12:09:23;;;;;;;2.30;1.75;;;24.40;99.90;;;;;;4995956;28;20206;-82
2022/08/17 12:11:52;;;;;;;1.55;1.45;;;23.80;99.90;;;;;;5048031;28;20695;-81
2022/08/17 12:14:25;;;;;;;3.15;1.35;;;23.80;99.90;;;;;;5052768;28;20661;-82
2022/08/17 12:17:07;;;;;;;2.05;1.33;;;23.80;99.90;;;;;;5052790;28;20193;-81
2022/08/17 12:19:36;;;;;;;1.30;1.20;;;23.80;99.90;;;;;;5052200;28;20197;-81
2022/08/17 12:22:24;;;;;;;1.17;0.65;;;23.60;99.90;;;;;;5052622;28;20194;-81
2022/08/17 12:25:03;;;;;;;2.38;1.95;;;23.50;99.90;;;;;;5052850;28;20211;-81
2022/08/17 12:27:35;;;;;;;1.15;1.02;;;23.50;99.90;;;;;;5053807;28;20192;-81
2022/08/17 12:30:20;;;;;;;1.55;1.40;;;23.70;99.90;;;;;;5052442;28;20221;-82
2022/08/17 12:32:48;;;;;;;2.50;1.60;;;23.80;99.90;;;;;;5054472;28;20523;-81
2022/08/17 12:35:28;;;;;;;0.70;0.63;;;24.20;99.90;;;;;;5053744;28;20197;-81
2022/08/17 12:37:59;;;;;;;2.33;1.60;;;24.10;99.90;;;;;;5052209;28;20208;-81
2022/08/17 12:40:30;;;;;;;1.35;0.95;;;23.70;99.90;;;;;;5051762;28;20198;-82
2022/08/17 12:43:03;;;;;;;1.10;0.90;;;23.40;99.90;;;;;;5048715;28;20388;-81
2022/08/17 12:45:35;;;;;;;2.78;1.30;;;23.50;99.90;;;;;;5032147;28;20225;-81
2022/08/17 12:48:21;;;;;;;1.52;1.00;;;23.60;99.90;;;;;;5032200;28;20580;-82
2022/08/17 12:50:49;;;;;;;2.13;1.13;;;23.70;99.90;;;;;;5045823;28;20675;-81
2022/08/17 12:53:27;;;;;;;1.45;1.35;;;23.70;99.90;;;;;;5053296;28;20703;-81
2022/08/17 12:55:55;;;;;;;1.60;1.45;;;23.70;99.90;;;;;;5054254;28;20223;-82
2022/08/17 12:58:25;;;;;;;2.08;1.38;;;23.90;99.90;;;;;;5052442;28;20691;-82
2022/08/17 13:01:01;;;;;;;1.10;0.85;;;23.80;99.90;;;;;;5053189;28;20725;-81
2022/08/17 13:03:30;;;;;;;1.38;1.17;;;23.80;99.90;;;;;;5052921;28;20201;-81
2022/08/17 13:06:05;;;;;;;1.48;1.02;;;23.80;99.90;;;;;;5051889;28;20209;-81
2022/08/17 13:08:41;;;;;;;2.83;0.93;;;23.90;99.90;;;;;;5053036;28;20225;-81
2022/08/17 13:11:27;;;;;;;1.20;0.98;;;24.00;99.90;;;;;;5051726;28;20707;-81
2022/08/17 13:13:55;;;;;;;0.95;0.93;;;23.80;99.90;;;;;;5052644;28;20228;-82
2022/08/17 13:16:27;;;;;;;1.27;0.90;;;23.80;99.90;;;;;;5051111;28;20193;-82
2022/08/17 13:19:14;;;;;;;1.63;1.52;;;23.80;99.90;;;;;;5052739;28;20190;-81
2022/08/17 13:21:46;;;;;;;1.40;1.27;;;24.10;99.90;;;;;;5051261;28;20676;-81
2022/08/17 13:24:16;;;;;;;1.35;1.20;;;24.20;99.90;;;;;;5052526;28;20319;-81
2022/08/17 13:26:46;;;;;;;1.10;1.00;;;24.50;99.90;;;;;;5052720;28;20236;-81
2022/08/17 13:29:22;;;;;;;1.23;1.13;;;24.70;99.90;;;;;;5051562;28;20205;-81
2022/08/17 13:31:54;;;;;;;1.77;1.13;;;24.40;99.90;;;;;;5051529;28;20679;-81
2022/08/17 13:34:23;;;;;;;1.20;1.10;;;24.30;99.90;;;;;;5051029;28;20205;-81
2022/08/17 13:36:50;;;;;;;0.95;0.77;;;24.50;99.90;;;;;;5052666;28;20275;-81
2022/08/17 13:39:20;;;;;;;1.73;1.15;;;24.70;99.90;;;;;;5051325;28;20197;-81
2022/08/17 13:41:47;;;;;;;2.50;1.45;;;25.00;99.90;;;;;;5052381;28;20559;-82
2022/08/17 13:44:31;;;;;;;0.60;0.60;;;25.20;99.90;;;;;;5052521;28;20190;-81
2022/08/17 13:46:58;;;;;;;2.25;1.52;;;25.30;99.90;;;;;;5051733;28;20613;-82
2022/08/17 13:49:26;;;;;;;0.95;0.80;;;25.10;99.90;;;;;;5052162;28;20740;-82
2022/08/17 13:51:52;;;;;;;1.42;1.33;;;25.10;99.90;;;;;;5051403;28;20272;-81